createdAt,value
2022-12-18T10:33:58.174Z,17.33
2022-12-18T10:36:26.517Z,13.55
2022-12-18T10:38:54.432Z,13.90
2022-12-18T10:41:24.352Z,12.30
2022-12-18T10:44:17.723Z,11.55
2022-12-18T10:46:48.060Z,12.82
2022-12-18T10:49:26.670Z,11.20
2022-12-18T10:52:15.683Z,23.00
2022-12-18T10:55:17.334Z,13.48
2022-12-18T10:57:45.395Z,12.73
2022-12-18T11:00:25.942Z,15.07
2022-12-18T11:02:54.255Z,11.88
2022-12-18T11:05:37.968Z,11.63
2022-12-18T11:08:05.945Z,12.13
2022-12-18T11:10:41.996Z,13.35
2022-12-18T11:13:26.029Z,12.95
2022-12-18T11:15:54.108Z,10.85
2022-12-18T11:18:34.849Z,10.88
2022-12-18T11:21:12.533Z,11.80
2022-12-18T11:23:50.935Z,12.95
2022-12-18T11:26:19.727Z,13.30
2022-12-18T11:29:08.822Z,11.48
2022-12-18T11:31:36.814Z,14.10
2022-12-18T11:34:33.060Z,14.07
2022-12-18T11:37:04.621Z,13.60
2022-12-18T11:39:36.620Z,15.73
2022-12-18T11:42:23.281Z,14.38
2022-12-18T11:45:12.015Z,13.05
2022-12-18T11:48:07.864Z,11.82
2022-12-18T11:50:54.076Z,144.32
2022-12-18T11:53:22.680Z,105.45
2022-12-18T11:56:05.925Z,16.75
2022-12-18T11:58:40.884Z,15.15
2022-12-18T12:01:16.193Z,15.20
2022-12-18T12:03:53.733Z,36.83
2022-12-18T12:06:37.187Z,96.45
2022-12-18T12:09:23.336Z,48.03
2022-12-18T12:12:07.377Z,12.32
2022-12-18T12:14:35.265Z,14.57
2022-12-18T12:17:09.115Z,16.95
2022-12-18T12:19:54.465Z,18.25
2022-12-18T12:22:42.214Z,13.02
2022-12-18T12:25:35.007Z,16.75
2022-12-18T12:28:24.541Z,14.02
2022-12-18T12:31:33.908Z,15.60
2022-12-18T12:34:07.973Z,11.85
2022-12-18T12:36:44.054Z,9.25
2022-12-18T12:39:19.604Z,8.85
2022-12-18T12:42:06.859Z,10.13
2022-12-18T12:44:52.634Z,8.98
2022-12-18T12:47:45.274Z,7.43
2022-12-18T12:50:19.689Z,10.82
2022-12-18T12:52:53.602Z,8.50
2022-12-18T12:55:26.124Z,11.02
2022-12-18T12:58:18.736Z,8.95
2022-12-18T13:01:19.939Z,10.48
2022-12-18T13:03:57.635Z,11.15
2022-12-18T13:06:44.846Z,8.80
2022-12-18T13:09:14.327Z,12.30
2022-12-18T13:12:02.308Z,10.50
2022-12-18T13:14:41.843Z,11.43
2022-12-18T13:17:21.917Z,10.15
2022-12-18T13:20:04.404Z,11.55
2022-12-18T13:22:37.202Z,10.95
2022-12-18T13:25:28.276Z,10.10
2022-12-18T13:28:04.173Z,8.70
2022-12-18T13:30:35.157Z,10.02
2022-12-18T13:33:15.311Z,9.85
2022-12-18T13:35:49.999Z,8.38
2022-12-18T13:38:24.984Z,8.85
2022-12-18T13:40:56.886Z,10.13
2022-12-18T13:43:45.341Z,10.07
2022-12-18T13:46:24.581Z,10.15
2022-12-18T13:49:03.197Z,12.73
2022-12-18T13:51:37.717Z,8.45
2022-12-18T13:54:21.519Z,10.50
2022-12-18T13:56:51.101Z,8.00
2022-12-18T13:59:24.768Z,7.85
2022-12-18T14:04:28.168Z,11.98
2022-12-18T14:07:19.036Z,8.88
2022-12-18T14:09:51.169Z,9.65
2022-12-18T14:12:42.707Z,10.00
2022-12-18T14:15:27.510Z,9.73
2022-12-18T14:18:40.723Z,10.18
2022-12-18T14:21:21.037Z,9.93
2022-12-18T14:23:49.450Z,10.65
2022-12-18T14:26:25.640Z,10.55
2022-12-18T14:28:54.998Z,13.73
2022-12-18T14:31:29.980Z,12.23
2022-12-18T14:33:58.583Z,13.07
2022-12-18T14:36:29.248Z,10.98
2022-12-18T14:39:00.639Z,11.70
2022-12-18T14:41:29.890Z,11.52
2022-12-18T14:44:09.545Z,9.00
2022-12-18T14:46:44.050Z,12.30
2022-12-18T14:49:37.894Z,11.65
2022-12-18T14:52:27.419Z,11.20
2022-12-18T14:54:55.677Z,12.43
2022-12-18T14:57:27.682Z,9.80
2022-12-18T15:00:06.070Z,10.77
2022-12-18T15:02:37.219Z,15.52
2022-12-18T15:05:14.478Z,14.75
2022-12-18T15:07:53.965Z,13.32
2022-12-18T15:10:27.211Z,13.45
2022-12-18T15:12:58.028Z,11.17
2022-12-18T15:15:37.867Z,15.48
2022-12-18T15:18:08.987Z,13.10
2022-12-18T15:20:52.141Z,12.48
2022-12-18T15:23:26.017Z,16.75
2022-12-18T15:26:02.702Z,12.77
2022-12-18T15:28:51.365Z,13.70
2022-12-18T15:31:29.931Z,13.07
2022-12-18T15:34:00.069Z,13.25
2022-12-18T15:36:30.745Z,11.05
2022-12-18T15:39:04.038Z,13.02
2022-12-18T15:41:36.534Z,14.00
2022-12-18T15:44:22.631Z,13.00
2022-12-18T15:46:50.735Z,10.48
2022-12-18T15:49:18.606Z,15.48
2022-12-18T15:51:52.794Z,18.08
2022-12-18T15:54:41.784Z,16.02
2022-12-18T15:57:24.092Z,21.95
2022-12-18T15:59:59.388Z,18.52
2022-12-18T16:02:29.144Z,21.15
2022-12-18T16:04:57.366Z,24.52
2022-12-18T16:07:28.189Z,23.38
2022-12-18T16:09:59.407Z,23.50
2022-12-18T16:12:30.379Z,29.25
2022-12-18T16:14:58.319Z,25.50
2022-12-18T16:17:26.230Z,29.38
2022-12-18T16:19:54.316Z,32.92
2022-12-18T16:22:27.840Z,38.97
2022-12-18T16:24:58.038Z,35.15
2022-12-18T16:27:26.809Z,37.28
2022-12-18T16:29:54.739Z,39.20
2022-12-18T16:32:23.582Z,35.47
2022-12-18T16:34:52.539Z,36.45
2022-12-18T16:37:20.415Z,38.63
2022-12-18T16:39:48.398Z,38.60
2022-12-18T16:42:20.471Z,39.97
2022-12-18T16:44:50.310Z,42.60
2022-12-18T16:47:19.250Z,38.90
2022-12-18T16:49:47.545Z,43.33
2022-12-18T16:52:15.786Z,38.03
2022-12-18T16:54:44.153Z,31.67
2022-12-18T16:57:15.073Z,35.05
2022-12-18T16:59:43.446Z,33.10
2022-12-18T17:02:30.668Z,32.85
2022-12-18T17:04:59.672Z,33.85
2022-12-18T17:07:28.549Z,30.73
2022-12-18T17:09:56.661Z,37.95
2022-12-18T17:12:25.130Z,39.08
2022-12-18T17:14:52.992Z,40.08
2022-12-18T17:17:22.596Z,37.53
2022-12-18T17:19:53.029Z,34.25
2022-12-18T17:22:23.523Z,38.47
2022-12-18T17:24:52.363Z,38.25
2022-12-18T17:27:20.590Z,32.22
2022-12-18T17:29:50.623Z,33.50
2022-12-18T17:32:18.711Z,32.88
2022-12-18T17:34:46.892Z,33.33
2022-12-18T17:37:15.713Z,32.45
2022-12-18T17:39:43.686Z,32.75
2022-12-18T17:42:15.350Z,33.42
2022-12-18T17:44:44.577Z,32.83
2022-12-18T17:47:15.716Z,32.25
2022-12-18T17:49:43.608Z,26.85
2022-12-18T17:52:11.574Z,25.27
2022-12-18T17:54:42.288Z,24.27
2022-12-18T17:57:10.677Z,24.25
2022-12-18T17:59:38.590Z,23.98
2022-12-18T18:02:06.698Z,30.95
2022-12-18T18:04:34.795Z,35.20
2022-12-18T18:07:03.341Z,31.95
2022-12-18T18:09:33.405Z,23.55
2022-12-18T18:12:19.759Z,22.10
2022-12-18T18:14:47.953Z,22.55
2022-12-18T18:17:16.070Z,27.80
2022-12-18T18:19:47.431Z,21.23
2022-12-18T18:22:17.799Z,24.60
2022-12-18T18:24:47.096Z,21.55
2022-12-18T18:27:15.580Z,25.27
2022-12-18T18:29:43.598Z,16.15
2022-12-18T18:32:11.557Z,19.13
2022-12-18T18:34:39.477Z,18.35
2022-12-18T18:37:08.202Z,15.98
2022-12-18T18:39:40.107Z,18.52
2022-12-18T18:42:15.839Z,19.98
2022-12-18T18:44:48.790Z,19.35
2022-12-18T18:47:17.080Z,18.98
2022-12-18T18:49:45.130Z,18.02
2022-12-18T18:52:13.155Z,16.13
2022-12-18T18:54:57.289Z,17.85
2022-12-18T18:57:30.672Z,20.02
2022-12-18T18:59:59.334Z,18.67
2022-12-18T19:02:27.307Z,21.92
2022-12-18T19:04:55.331Z,18.85
2022-12-18T19:07:29.689Z,21.67
2022-12-18T19:10:04.686Z,22.38
2022-12-18T19:12:53.339Z,22.52
2022-12-18T19:15:22.953Z,26.27
2022-12-18T19:17:50.986Z,28.27
2022-12-18T19:20:19.189Z,27.33
2022-12-18T19:22:55.111Z,26.10
2022-12-18T19:25:39.993Z,23.58
2022-12-18T19:28:18.965Z,23.25
2022-12-18T19:30:58.951Z,20.88
2022-12-18T19:33:43.268Z,22.85
2022-12-18T19:36:26.749Z,26.25
2022-12-18T19:38:58.658Z,21.60
2022-12-18T19:41:28.260Z,26.10
2022-12-18T19:43:59.481Z,36.05
2022-12-18T19:46:27.915Z,26.40
2022-12-18T19:48:55.925Z,30.55
2022-12-18T19:51:26.130Z,26.10
2022-12-18T19:53:58.957Z,24.80
2022-12-18T19:56:31.755Z,25.70
2022-12-18T19:59:00.912Z,30.05
2022-12-18T20:01:30.575Z,26.15
2022-12-18T20:03:59.676Z,24.92
2022-12-18T20:06:37.126Z,23.42
2022-12-18T20:09:06.902Z,21.02
2022-12-18T20:11:38.868Z,22.27
2022-12-18T20:14:12.112Z,21.73
2022-12-18T20:16:40.733Z,23.42
2022-12-18T20:19:10.736Z,26.80
2022-12-18T20:21:38.778Z,27.98
2022-12-18T20:24:08.546Z,32.05
2022-12-18T20:26:36.933Z,35.53
2022-12-18T20:29:05.439Z,37.42
2022-12-18T20:31:33.472Z,36.55
2022-12-18T20:34:02.760Z,37.30
2022-12-18T20:36:35.125Z,38.60
2022-12-18T20:39:07.538Z,42.53
2022-12-18T20:41:38.954Z,36.80
2022-12-18T20:44:11.169Z,40.70
2022-12-18T20:46:54.066Z,34.67
2022-12-18T20:49:24.501Z,37.55
2022-12-18T20:51:57.813Z,36.22
2022-12-18T20:54:27.523Z,34.28
2022-12-18T20:56:57.044Z,33.72
2022-12-18T20:59:25.905Z,33.20
2022-12-18T21:01:54.229Z,33.70
2022-12-18T21:04:22.702Z,35.38
2022-12-18T21:06:55.628Z,40.95
2022-12-18T21:09:25.780Z,32.53
2022-12-18T21:12:13.982Z,32.42
2022-12-18T21:14:43.074Z,31.63
2022-12-18T21:17:11.989Z,31.00
2022-12-18T21:19:40.111Z,36.45
2022-12-18T21:22:09.827Z,32.78
2022-12-18T21:24:38.127Z,32.28
2022-12-18T21:27:06.173Z,31.45
2022-12-18T21:29:35.145Z,30.17
2022-12-18T21:32:04.626Z,30.70
2022-12-18T21:34:33.670Z,33.05
2022-12-18T21:37:02.414Z,36.22
2022-12-18T21:39:30.785Z,33.72
2022-12-18T21:42:17.833Z,33.25
2022-12-18T21:44:48.445Z,29.52
2022-12-18T21:47:22.879Z,31.83
2022-12-18T21:49:53.077Z,31.70
2022-12-18T21:52:31.427Z,37.55
2022-12-18T21:55:09.157Z,33.35
2022-12-18T21:57:39.494Z,35.47
2022-12-18T22:00:17.387Z,33.13
2022-12-18T22:02:59.935Z,33.50
2022-12-18T22:05:36.822Z,44.28
2022-12-18T22:08:05.263Z,46.85
2022-12-18T22:10:33.406Z,39.63
2022-12-18T22:13:01.641Z,36.30
2022-12-18T22:15:29.624Z,38.88
2022-12-18T22:18:00.244Z,37.80
2022-12-18T22:20:29.997Z,35.05
2022-12-18T22:22:58.918Z,34.78
2022-12-18T22:25:28.975Z,33.70
2022-12-18T22:28:15.419Z,30.02
2022-12-18T22:30:44.130Z,33.88
2022-12-18T22:33:12.312Z,35.80
2022-12-18T22:35:40.196Z,37.05
2022-12-18T22:38:08.160Z,34.72
2022-12-18T22:40:36.012Z,32.22
2022-12-18T22:43:03.991Z,39.42
2022-12-18T22:45:31.913Z,40.10
2022-12-18T22:48:01.891Z,35.72
2022-12-18T22:50:29.777Z,33.53
2022-12-18T22:53:00.806Z,31.27
2022-12-18T22:55:28.669Z,29.98
2022-12-18T22:57:56.634Z,30.80
2022-12-18T23:00:24.909Z,31.23
2022-12-18T23:02:59.967Z,30.95
2022-12-18T23:05:30.815Z,33.03
2022-12-18T23:07:59.403Z,32.53
2022-12-18T23:10:27.621Z,32.63
2022-12-18T23:12:55.698Z,37.45
2022-12-18T23:15:28.256Z,31.83
2022-12-18T23:17:59.020Z,38.90
2022-12-18T23:20:27.998Z,34.75
2022-12-18T23:22:56.020Z,33.60
2022-12-18T23:25:24.022Z,34.03
2022-12-18T23:27:51.967Z,31.60
2022-12-18T23:30:20.098Z,34.20
2022-12-18T23:32:48.468Z,32.75
2022-12-18T23:35:17.565Z,35.63
2022-12-18T23:37:59.505Z,41.60
2022-12-18T23:40:29.638Z,33.53
2022-12-18T23:43:02.148Z,34.08
2022-12-18T23:45:30.009Z,35.25
2022-12-18T23:47:57.957Z,35.20
2022-12-18T23:50:29.297Z,30.77
2022-12-18T23:53:03.766Z,36.40
2022-12-18T23:55:39.629Z,35.65
